Time;durP1;ratioP1;P1;durP2;ratioP2;P2;SDS_P1;SDS_P2;PMS_P1;PMS_P2;Temp;Humidity;BMP_temperature;BMP_pressure;BME280_temperature;BME280_humidity;BME280_pressure;Samples;Min_cycle;Max_cycle;Signal;HPM_P1;HPM_P2
2023/08/22 00:01:36;;;;;;;4.03;1.95;;;17.90;99.90;;;;;;4976525;28;20206;-65
2023/08/22 00:04:04;;;;;;;3.58;2.10;;;18.00;99.90;;;;;;4976144;28;20211;-65
2023/08/22 00:06:31;;;;;;;4.55;2.10;;;17.90;99.90;;;;;;4984462;28;20199;-65
2023/08/22 00:08:57;;;;;;;5.43;2.63;;;17.90;99.90;;;;;;4986569;28;20213;-65
2023/08/22 00:11:24;;;;;;;7.45;2.45;;;17.90;99.90;;;;;;4953536;28;20206;-65
2023/08/22 00:13:51;;;;;;;3.85;1.80;;;17.90;99.90;;;;;;4975650;28;20206;-65
2023/08/22 00:16:18;;;;;;;6.20;2.53;;;17.90;99.90;;;;;;4982360;28;20200;-65
2023/08/22 00:18:46;;;;;;;3.65;1.95;;;17.90;99.90;;;;;;4971578;28;20238;-65
2023/08/22 00:21:13;;;;;;;3.67;2.20;;;17.90;99.90;;;;;;4983034;28;20203;-65
2023/08/22 00:23:40;;;;;;;3.45;2.00;;;17.90;99.90;;;;;;4981357;28;20563;-65
2023/08/22 00:26:06;;;;;;;2.75;1.90;;;16.60;99.90;;;;;;4985590;28;20653;-65
2023/08/22 00:28:33;;;;;;;2.70;1.92;;;17.80;99.90;;;;;;4948286;28;20317;-65
2023/08/22 00:31:00;;;;;;;4.20;2.53;;;17.70;99.90;;;;;;4987461;28;20206;-65
2023/08/22 00:33:27;;;;;;;4.95;2.47;;;17.70;99.90;;;;;;4980731;28;20203;-65
2023/08/22 00:35:55;;;;;;;2.67;2.05;;;17.60;99.90;;;;;;4974740;28;20210;-65
2023/08/22 00:38:22;;;;;;;4.75;2.50;;;17.60;99.90;;;;;;4976052;28;20227;-65
2023/08/22 00:40:49;;;;;;;4.13;2.70;;;17.60;99.90;;;;;;4984154;28;20207;-66
2023/08/22 00:43:16;;;;;;;5.15;2.03;;;17.90;99.90;;;;;;4947198;28;20243;-65
2023/08/22 00:45:44;;;;;;;5.68;2.25;;;17.50;99.90;;;;;;4980583;28;20198;-65
2023/08/22 00:48:11;;;;;;;3.83;2.33;;;17.50;99.90;;;;;;4985500;28;20577;-65
2023/08/22 00:50:38;;;;;;;3.00;2.03;;;17.40;99.90;;;;;;4972463;28;20213;-65
2023/08/22 00:53:07;;;;;;;2.83;1.90;;;17.50;99.90;;;;;;4985749;28;20669;-65
2023/08/22 00:55:33;;;;;;;6.47;1.90;;;17.50;99.90;;;;;;4981256;28;20199;-65
2023/08/22 00:58:01;;;;;;;6.38;2.20;;;17.50;99.90;;;;;;4952466;28;20238;-65
2023/08/22 01:00:28;;;;;;;6.20;1.92;;;17.70;99.90;;;;;;4976806;28;20223;-65
2023/08/22 01:02:54;;;;;;;7.07;2.33;;;17.40;99.90;;;;;;4983989;28;20206;-65
2023/08/22 01:05:23;;;;;;;2.75;2.03;;;17.50;99.90;;;;;;4971385;28;20611;-65
2023/08/22 01:07:56;;;;;;;2.55;1.70;;;17.40;99.90;;;;;;4978551;28;20195;-65
2023/08/22 01:10:30;;;;;;;3.10;2.08;;;17.50;99.90;;;;;;4982460;28;20214;-65
2023/08/22 01:13:02;;;;;;;5.97;2.45;;;17.50;99.90;;;;;;4983971;28;20341;-65
2023/08/22 01:15:31;;;;;;;4.95;2.40;;;17.60;99.90;;;;;;4950363;28;20222;-66
2023/08/22 01:18:01;;;;;;;4.32;2.17;;;17.60;99.90;;;;;;4982122;28;20205;-65
2023/08/22 01:20:28;;;;;;;4.70;1.92;;;17.50;99.90;;;;;;4969787;28;20213;-65
2023/08/22 01:22:56;;;;;;;5.32;2.25;;;17.50;99.90;;;;;;4976563;28;20202;-65
2023/08/22 01:25:24;;;;;;;2.95;1.90;;;16.50;99.90;;;;;;4981920;28;20720;-65
2023/08/22 01:28:01;;;;;;;12.18;2.67;;;17.50;99.90;;;;;;4979151;28;20206;-65
2023/08/22 01:30:34;;;;;;;3.58;2.33;;;17.50;99.90;;;;;;4945222;28;20696;-65
2023/08/22 01:33:07;;;;;;;3.55;2.08;;;17.40;99.90;;;;;;4981638;28;20325;-65
2023/08/22 01:35:38;;;;;;;3.53;1.90;;;17.30;99.90;;;;;;4971046;28;20341;-65
2023/08/22 01:38:07;;;;;;;3.97;2.22;;;17.50;99.90;;;;;;4980253;28;20204;-65
2023/08/22 01:40:34;;;;;;;2.35;1.90;;;17.40;99.90;;;;;;4975229;28;20198;-65
2023/08/22 01:43:01;;;;;;;4.05;1.85;;;17.50;99.90;;;;;;4982405;28;20200;-65
2023/08/22 01:45:28;;;;;;;2.00;1.80;;;17.30;99.90;;;;;;4945083;28;20234;-65
2023/08/22 01:47:55;;;;;;;6.68;2.10;;;17.40;99.90;;;;;;4979882;28;20203;-66
2023/08/22 01:50:22;;;;;;;6.70;2.10;;;17.70;99.90;;;;;;4978376;28;20207;-65
2023/08/22 01:52:48;;;;;;;3.60;1.85;;;17.40;99.90;;;;;;4978095;28;21536;-65
2023/08/22 01:55:19;;;;;;;4.78;2.13;;;17.40;99.90;;;;;;4982368;28;20199;-65
2023/08/22 01:57:45;;;;;;;9.43;2.03;;;17.50;99.90;;;;;;4978088;28;20226;-65
2023/08/22 02:00:13;;;;;;;6.15;2.25;;;17.40;99.90;;;;;;4947403;28;20708;-65
2023/08/22 02:02:40;;;;;;;1.73;1.63;;;17.40;99.90;;;;;;4976003;28;20197;-65
2023/08/22 02:05:07;;;;;;;4.75;2.08;;;17.50;99.90;;;;;;4979403;28;20199;-65
2023/08/22 02:07:35;;;;;;;3.97;1.95;;;17.50;99.90;;;;;;4971594;28;20658;-65
2023/08/22 02:10:03;;;;;;;4.38;2.10;;;17.50;99.90;;;;;;4984803;28;20213;-65
2023/08/22 02:12:32;;;;;;;5.30;1.80;;;17.60;99.90;;;;;;4977394;28;20207;-65
2023/08/22 02:14:59;;;;;;;5.15;2.00;;;17.60;99.90;;;;;;4979623;28;20213;-65
2023/08/22 02:17:26;;;;;;;4.78;1.90;;;17.60;99.90;;;;;;4946105;28;20207;-65
2023/08/22 02:19:52;;;;;;;6.38;2.20;;;17.60;99.90;;;;;;4982791;28;20254;-65
2023/08/22 02:22:19;;;;;;;3.55;2.13;;;17.60;99.90;;;;;;4966839;28;20214;-65
2023/08/22 02:24:46;;;;;;;4.82;2.10;;;17.60;99.90;;;;;;4980057;28;20242;-65
2023/08/22 02:27:13;;;;;;;5.95;2.05;;;17.60;99.90;;;;;;4981237;28;20217;-65
2023/08/22 02:29:41;;;;;;;4.90;1.95;;;17.30;99.90;;;;;;4983134;28;20194;-65
2023/08/22 02:32:08;;;;;;;4.43;1.98;;;17.60;99.90;;;;;;4949357;28;20210;-65
2023/08/22 02:34:35;;;;;;;6.00;2.42;;;17.50;99.90;;;;;;4983390;28;20198;-65
2023/08/22 02:37:02;;;;;;;5.97;1.90;;;17.50;99.90;;;;;;4978682;28;20213;-65
2023/08/22 02:39:29;;;;;;;3.78;2.35;;;17.40;99.90;;;;;;4984946;28;20349;-66
2023/08/22 02:41:56;;;;;;;2.92;2.08;;;17.40;99.90;;;;;;4992392;28;20282;-65
2023/08/22 02:44:23;;;;;;;7.10;2.50;;;17.50;99.90;;;;;;4984134;28;20199;-65
2023/08/22 02:46:51;;;;;;;2.63;1.98;;;17.40;99.90;;;;;;4951167;28;20218;-65
2023/08/22 02:49:18;;;;;;;7.38;2.30;;;17.30;99.90;;;;;;4983197;28;20207;-65
2023/08/22 02:51:45;;;;;;;2.58;2.15;;;17.40;99.90;;;;;;4975016;28;20229;-65
2023/08/22 02:54:11;;;;;;;4.63;2.05;;;17.50;99.90;;;;;;4980450;28;20209;-65
2023/08/22 02:56:38;;;;;;;3.47;2.10;;;17.50;99.90;;;;;;4984333;28;20203;-65
2023/08/22 02:59:05;;;;;;;9.07;3.10;;;17.50;99.90;;;;;;4986745;28;20237;-65
2023/08/22 03:01:32;;;;;;;5.93;2.72;;;17.40;99.90;;;;;;4978983;28;20222;-65
2023/08/22 03:04:00;;;;;;;11.50;3.50;;;17.40;99.90;;;;;;4949316;28;20214;-66
2023/08/22 03:06:27;;;;;;;6.97;2.85;;;17.40;99.90;;;;;;4974466;28;20203;-65
2023/08/22 03:08:54;;;;;;;4.85;3.22;;;17.40;99.90;;;;;;4969116;28;20839;-65
2023/08/22 03:11:21;;;;;;;14.70;3.78;;;17.50;99.90;;;;;;4975165;28;20233;-65
2023/08/22 03:13:48;;;;;;;6.43;4.00;;;17.50;99.90;;;;;;4973325;28;20203;-65
2023/08/22 03:16:14;;;;;;;7.78;3.60;;;17.40;99.90;;;;;;4982051;28;20680;-65
2023/08/22 03:18:43;;;;;;;5.20;3.00;;;17.40;99.90;;;;;;4951237;28;20249;-65
2023/08/22 03:21:11;;;;;;;8.90;3.45;;;17.40;99.90;;;;;;4981248;28;20753;-65
2023/08/22 03:23:38;;;;;;;8.13;3.83;;;17.40;99.90;;;;;;4975746;28;20198;-65
2023/08/22 03:26:10;;;;;;;4.32;3.35;;;17.40;99.90;;;;;;4972345;28;20203;-65
2023/08/22 03:28:37;;;;;;;5.93;3.80;;;17.40;99.90;;;;;;4974225;28;21171;-65
2023/08/22 03:31:05;;;;;;;5.85;3.20;;;17.70;99.90;;;;;;4978034;28;20565;-65
2023/08/22 03:33:33;;;;;;;7.95;3.60;;;17.40;99.90;;;;;;4950714;28;20214;-66
2023/08/22 03:36:00;;;;;;;6.18;3.90;;;17.40;99.90;;;;;;4982975;28;20202;-65
2023/08/22 03:38:28;;;;;;;8.90;3.33;;;17.40;99.90;;;;;;4971220;28;20214;-65
2023/08/22 03:40:56;;;;;;;4.07;3.60;;;17.40;99.90;;;;;;4971830;28;20322;-65
2023/08/22 03:43:23;;;;;;;8.95;3.92;;;17.40;99.90;;;;;;4982874;28;20581;-65
2023/08/22 03:45:49;;;;;;;3.97;3.05;;;17.40;99.90;;;;;;4972303;28;20207;-65
2023/08/22 03:48:16;;;;;;;7.47;3.22;;;17.50;99.90;;;;;;4949870;28;20939;-65
2023/08/22 03:50:44;;;;;;;5.45;3.17;;;17.30;99.90;;;;;;4971664;28;20242;-65
2023/08/22 03:53:11;;;;;;;5.55;3.67;;;17.30;99.90;;;;;;4974065;28;20209;-65
2023/08/22 03:55:40;;;;;;;5.10;3.75;;;17.30;99.90;;;;;;4983437;28;20233;-66
2023/08/22 03:58:07;;;;;;;5.97;3.75;;;17.30;99.90;;;;;;4985717;28;20229;-65
2023/08/22 04:00:35;;;;;;;8.95;3.38;;;17.30;99.90;;;;;;4974245;28;20237;-65
2023/08/22 04:03:02;;;;;;;7.78;3.70;;;16.50;99.90;;;;;;4945079;28;22167;-65
2023/08/22 04:05:29;;;;;;;6.53;3.38;;;17.30;99.90;;;;;;4978282;28;20209;-65
2023/08/22 04:07:55;;;;;;;5.28;3.65;;;17.20;99.90;;;;;;4981633;28;20199;-65
2023/08/22 04:10:22;;;;;;;4.72;3.25;;;17.30;99.90;;;;;;4974603;28;20214;-65
2023/08/22 04:12:51;;;;;;;4.25;3.17;;;17.20;99.90;;;;;;4983706;28;20661;-66
2023/08/22 04:15:19;;;;;;;4.25;2.78;;;17.30;99.90;;;;;;4974009;28;20234;-65
2023/08/22 04:17:46;;;;;;;7.00;3.20;;;17.20;99.90;;;;;;4986397;28;20207;-65
2023/08/22 04:20:13;;;;;;;6.50;3.10;;;17.20;99.90;;;;;;4953281;28;20222;-66
2023/08/22 04:22:41;;;;;;;5.18;2.65;;;17.20;99.90;;;;;;4977804;28;20226;-65
2023/08/22 04:25:09;;;;;;;2.90;2.65;;;17.30;99.90;;;;;;4974192;28;20217;-65
2023/08/22 04:27:37;;;;;;;9.05;3.15;;;17.20;99.90;;;;;;4980541;28;20203;-65
2023/08/22 04:30:06;;;;;;;3.05;2.70;;;17.20;99.90;;;;;;4983511;28;20231;-65
2023/08/22 04:32:33;;;;;;;4.32;2.78;;;17.20;99.90;;;;;;4992786;28;21096;-66
2023/08/22 04:35:00;;;;;;;3.65;3.00;;;17.20;99.90;;;;;;4946715;28;20219;-65
2023/08/22 04:37:27;;;;;;;10.23;2.85;;;17.10;99.90;;;;;;4981294;28;20234;-65
2023/08/22 04:39:53;;;;;;;3.88;2.75;;;19.80;99.90;;;;;;4974783;28;20223;-65
2023/08/22 04:42:20;;;;;;;6.80;3.17;;;17.20;99.90;;;;;;4983322;28;20217;-65
2023/08/22 04:44:47;;;;;;;4.07;3.05;;;17.20;99.90;;;;;;4969551;28;20207;-65
2023/08/22 04:47:15;;;;;;;4.32;2.63;;;17.20;99.90;;;;;;4966908;28;20213;-65
2023/08/22 04:49:42;;;;;;;6.55;2.72;;;16.20;99.90;;;;;;4953937;28;20218;-66
2023/08/22 04:52:09;;;;;;;2.63;2.42;;;17.20;99.90;;;;;;4971442;28;20667;-65
2023/08/22 04:54:36;;;;;;;6.43;2.83;;;17.20;99.90;;;;;;4982098;28;20202;-65
2023/08/22 04:57:03;;;;;;;7.05;2.63;;;17.20;99.90;;;;;;4975232;28;20231;-65
2023/08/22 04:59:30;;;;;;;4.43;2.45;;;;;;;;;;4967948;28;20229;-65
2023/08/22 05:01:56;;;;;;;4.18;2.67;;;17.20;99.90;;;;;;4980858;28;20203;-65
2023/08/22 05:04:25;;;;;;;3.95;2.35;;;17.30;99.90;;;;;;4984486;28;20202;-65
2023/08/22 05:06:51;;;;;;;2.78;2.20;;;17.20;99.90;;;;;;4939920;28;20226;-65
2023/08/22 05:09:18;;;;;;;6.82;2.58;;;17.20;99.90;;;;;;4974511;28;20214;-65
2023/08/22 05:11:45;;;;;;;6.72;2.30;;;17.30;99.90;;;;;;4969835;28;20195;-65
2023/08/22 05:14:12;;;;;;;3.15;2.38;;;17.20;99.90;;;;;;4964883;28;20918;-65
2023/08/22 05:16:39;;;;;;;3.45;2.50;;;17.20;99.90;;;;;;4980805;28;20194;-65
2023/08/22 05:19:06;;;;;;;5.03;2.22;;;17.20;99.90;;;;;;4983040;28;20198;-65
2023/08/22 05:21:34;;;;;;;6.55;2.50;;;17.20;99.90;;;;;;4966333;28;20661;-65
2023/08/22 05:24:01;;;;;;;7.93;2.60;;;17.20;99.90;;;;;;4957896;28;20214;-64
2023/08/22 05:26:28;;;;;;;4.63;2.40;;;17.20;99.90;;;;;;4982174;28;20222;-65
2023/08/22 05:28:55;;;;;;;5.75;2.55;;;17.20;99.90;;;;;;4958441;28;20230;-65
2023/08/22 05:31:22;;;;;;;4.93;2.97;;;17.30;99.90;;;;;;4975558;28;20211;-64
2023/08/22 05:33:49;;;;;;;4.75;3.30;;;17.30;99.90;;;;;;4978130;28;20256;-64
2023/08/22 05:36:16;;;;;;;5.80;2.70;;;17.40;99.90;;;;;;4985723;28;20202;-64
2023/08/22 05:38:44;;;;;;;4.25;2.85;;;17.40;99.90;;;;;;4935340;28;20351;-64
2023/08/22 05:41:11;;;;;;;4.13;2.40;;;17.40;99.90;;;;;;4986900;28;20227;-65
2023/08/22 05:43:38;;;;;;;5.90;2.50;;;17.40;99.90;;;;;;4947524;28;20210;-65
2023/08/22 05:46:05;;;;;;;6.00;2.67;;;17.40;99.90;;;;;;4970201;28;20224;-64
2023/08/22 05:48:32;;;;;;;4.43;2.47;;;17.30;99.90;;;;;;4970872;28;20214;-65
2023/08/22 05:51:01;;;;;;;3.35;2.90;;;17.40;99.90;;;;;;4982601;28;20688;-65
2023/08/22 05:53:28;;;;;;;4.18;2.70;;;17.40;99.90;;;;;;4927559;28;20211;-65
2023/08/22 05:55:56;;;;;;;8.35;2.83;;;17.40;99.90;;;;;;4983680;28;20198;-65
2023/08/22 05:58:23;;;;;;;4.13;2.83;;;17.30;99.90;;;;;;4973817;28;20237;-65
2023/08/22 06:00:50;;;;;;;3.00;2.63;;;17.40;99.90;;;;;;4964324;28;20457;-64
2023/08/22 06:03:18;;;;;;;3.20;2.70;;;17.40;99.90;;;;;;4974226;28;20202;-65
2023/08/22 06:05:45;;;;;;;4.03;2.72;;;17.50;99.90;;;;;;4972726;28;20207;-65
2023/08/22 06:08:12;;;;;;;7.75;3.22;;;17.40;99.90;;;;;;4966716;28;20210;-65
2023/08/22 06:10:38;;;;;;;6.88;3.22;;;17.50;99.90;;;;;;4960731;28;20202;-65
2023/08/22 06:13:07;;;;;;;5.25;3.10;;;17.50;99.90;;;;;;4985501;28;20199;-65
2023/08/22 06:15:33;;;;;;;11.52;4.40;;;18.50;99.90;;;;;;4971596;28;20222;-65
2023/08/22 06:18:00;;;;;;;4.03;3.60;;;17.70;99.90;;;;;;4986798;28;20223;-65
2023/08/22 06:20:27;;;;;;;7.80;3.90;;;17.80;99.90;;;;;;4966096;28;20310;-65
2023/08/22 06:22:54;;;;;;;5.13;3.90;;;17.90;99.90;;;;;;4971177;28;21413;-65
2023/08/22 06:25:20;;;;;;;6.80;4.43;;;15.00;99.90;;;;;;4917781;28;20231;-65
2023/08/22 06:27:47;;;;;;;6.90;4.22;;;18.10;99.90;;;;;;4988246;28;20209;-65
2023/08/22 06:30:15;;;;;;;5.95;4.85;;;18.20;99.90;;;;;;4988179;28;20669;-65
2023/08/22 06:32:42;;;;;;;6.60;4.65;;;18.30;99.90;;;;;;4978251;28;20199;-65
2023/08/22 06:35:09;;;;;;;6.13;4.65;;;18.30;99.90;;;;;;4991444;28;20849;-65
2023/08/22 06:37:36;;;;;;;6.40;5.05;;;18.50;99.90;;;;;;4979625;28;20265;-64
2023/08/22 06:40:05;;;;;;;7.43;4.50;;;18.40;99.90;;;;;;4954214;28;20219;-64
2023/08/22 06:42:32;;;;;;;8.27;4.88;;;18.50;99.90;;;;;;4987819;28;20203;-65
2023/08/22 06:44:59;;;;;;;8.68;5.82;;;18.50;99.90;;;;;;4989610;28;20286;-66
2023/08/22 06:47:27;;;;;;;13.13;6.30;;;18.70;99.90;;;;;;4979258;28;20207;-65
2023/08/22 06:49:54;;;;;;;12.77;6.28;;;18.70;99.90;;;;;;4990330;28;20199;-65
2023/08/22 06:52:21;;;;;;;13.00;7.57;;;18.70;99.90;;;;;;4979293;28;20557;-65
2023/08/22 06:54:48;;;;;;;12.40;9.75;;;18.80;99.90;;;;;;4984472;28;20277;-65
2023/08/22 06:57:14;;;;;;;12.65;9.48;;;18.90;99.90;;;;;;4956684;28;20234;-65
2023/08/22 06:59:41;;;;;;;17.75;10.50;;;18.90;99.90;;;;;;4993080;28;20190;-65
2023/08/22 07:02:08;;;;;;;17.83;11.27;;;19.00;99.90;;;;;;4981700;28;20213;-65
2023/08/22 07:04:36;;;;;;;12.65;10.45;;;19.10;99.90;;;;;;4986846;28;20665;-65
2023/08/22 07:07:03;;;;;;;13.40;10.02;;;19.10;99.90;;;;;;4993612;28;20214;-65
2023/08/22 07:09:30;;;;;;;14.00;9.38;;;19.10;99.90;;;;;;4978175;28;20203;-65
2023/08/22 07:11:56;;;;;;;12.95;8.00;;;19.10;99.90;;;;;;4956704;28;20222;-65
2023/08/22 07:14:23;;;;;;;10.23;8.23;;;19.20;99.90;;;;;;4985220;28;20198;-65
2023/08/22 07:16:50;;;;;;;11.95;8.43;;;19.10;99.90;;;;;;4981260;28;20219;-65
2023/08/22 07:19:17;;;;;;;11.48;8.45;;;19.10;99.90;;;;;;4974191;28;20230;-65
2023/08/22 07:21:47;;;;;;;12.35;8.65;;;19.10;99.90;;;;;;4984207;28;20242;-65
2023/08/22 07:24:15;;;;;;;13.57;8.55;;;19.20;99.90;;;;;;4969847;28;20226;-65
2023/08/22 07:26:42;;;;;;;12.48;8.23;;;19.30;99.90;;;;;;4986142;28;21781;-64
2023/08/22 07:29:08;;;;;;;11.48;7.85;;;19.30;99.90;;;;;;4950661;28;20223;-65
2023/08/22 07:31:36;;;;;;;11.18;7.75;;;19.30;99.90;;;;;;4983184;28;20214;-65
2023/08/22 07:34:03;;;;;;;11.85;7.97;;;19.40;99.90;;;;;;4976883;28;20206;-65
2023/08/22 07:36:30;;;;;;;13.48;7.05;;;19.40;99.90;;;;;;4982359;28;20199;-65
2023/08/22 07:38:58;;;;;;;14.15;6.65;;;19.50;99.90;;;;;;4975815;28;20557;-65
2023/08/22 07:41:25;;;;;;;11.00;6.00;;;19.60;99.90;;;;;;4963995;28;20750;-65
2023/08/22 07:43:51;;;;;;;8.70;6.13;;;19.80;99.90;;;;;;4945274;28;20222;-65
2023/08/22 07:46:19;;;;;;;8.55;6.60;;;19.40;99.90;;;;;;4965553;28;20241;-65
2023/08/22 07:48:46;;;;;;;7.90;6.55;;;19.90;99.90;;;;;;4973662;28;20203;-65
2023/08/22 07:51:13;;;;;;;7.55;6.75;;;19.90;99.90;;;;;;4961504;28;20321;-66
2023/08/22 07:53:40;;;;;;;11.85;6.53;;;20.10;99.90;;;;;;4966642;28;20226;-65
2023/08/22 07:56:08;;;;;;;9.00;6.32;;;20.10;99.90;;;;;;4953219;28;20203;-66
2023/08/22 07:58:35;;;;;;;9.65;6.43;;;20.20;99.90;;;;;;4934200;28;20242;-65
2023/08/22 08:01:05;;;;;;;13.25;6.20;;;20.20;99.90;;;;;;4976889;28;20704;-65
2023/08/22 08:03:32;;;;;;;7.55;6.07;;;19.60;99.90;;;;;;4972192;28;24810;-65
2023/08/22 08:05:59;;;;;;;11.82;5.50;;;20.30;99.90;;;;;;4983767;28;20221;-65
2023/08/22 08:08:26;;;;;;;10.45;5.53;;;20.40;99.90;;;;;;4977779;28;20223;-65
2023/08/22 08:10:52;;;;;;;7.10;4.82;;;20.60;99.90;;;;;;4951578;28;20230;-65
2023/08/22 08:13:21;;;;;;;8.93;4.80;;;20.60;99.90;;;;;;4938055;28;22365;-65
2023/08/22 08:15:47;;;;;;;7.57;4.07;;;20.60;99.90;;;;;;4967502;28;20207;-65
2023/08/22 08:18:16;;;;;;;8.25;3.63;;;20.70;99.90;;;;;;4970655;28;20202;-65
2023/08/22 08:20:43;;;;;;;5.53;4.00;;;20.80;99.90;;;;;;4976768;28;20219;-65
2023/08/22 08:23:11;;;;;;;10.07;3.95;;;20.80;99.90;;;;;;4978513;28;20209;-65
2023/08/22 08:25:38;;;;;;;12.52;3.95;;;20.90;99.90;;;;;;4984615;28;20213;-64
2023/08/22 08:28:06;;;;;;;6.03;3.72;;;20.90;99.90;;;;;;4961344;28;20204;-65
2023/08/22 08:30:34;;;;;;;7.95;3.47;;;21.00;99.90;;;;;;4948764;28;20877;-64
2023/08/22 08:33:03;;;;;;;6.13;3.47;;;21.00;99.90;;;;;;4982640;28;20199;-64
2023/08/22 08:35:30;;;;;;;5.72;3.10;;;21.10;99.90;;;;;;4973163;28;20199;-64
2023/08/22 08:37:59;;;;;;;6.38;2.72;;;21.10;99.90;;;;;;4974081;28;20206;-64
2023/08/22 08:40:26;;;;;;;5.88;3.25;;;21.20;99.90;;;;;;4968528;28;20223;-65
2023/08/22 08:42:55;;;;;;;8.20;2.60;;;21.20;99.90;;;;;;4954405;28;20218;-65
2023/08/22 08:45:22;;;;;;;4.45;2.63;;;21.10;99.90;;;;;;4940834;28;20215;-65
2023/08/22 08:47:51;;;;;;;5.25;2.40;;;21.20;99.90;;;;;;4972618;28;20209;-65
2023/08/22 08:50:18;;;;;;;2.55;2.08;;;21.30;99.90;;;;;;4969756;28;20927;-64
2023/08/22 08:52:46;;;;;;;4.53;2.97;;;21.40;99.90;;;;;;4959585;28;20215;-65
2023/08/22 08:55:13;;;;;;;7.43;2.50;;;21.40;99.90;;;;;;4968583;28;20799;-65
2023/08/22 08:57:40;;;;;;;4.40;2.03;;;21.40;99.90;;;;;;4967185;28;20230;-65
2023/08/22 09:00:08;;;;;;;7.97;3.10;;;21.40;99.90;;;;;;4939580;28;21152;-65
2023/08/22 09:02:35;;;;;;;5.63;2.60;;;21.40;99.90;;;;;;4963134;28;20219;-66
2023/08/22 09:05:04;;;;;;;4.00;2.45;;;21.40;99.90;;;;;;4966125;28;20724;-65
2023/08/22 09:07:31;;;;;;;4.97;2.58;;;21.50;99.90;;;;;;4939185;28;20218;-66
2023/08/22 09:09:58;;;;;;;9.05;2.60;;;21.50;99.90;;;;;;4976440;28;20205;-65
2023/08/22 09:12:32;;;;;;;4.15;2.35;;;21.60;99.90;;;;;;4961785;28;20566;-65
2023/08/22 09:14:59;;;;;;;5.38;2.72;;;21.60;99.90;;;;;;4955080;28;20610;-65
2023/08/22 09:17:29;;;;;;;4.30;2.92;;;21.60;99.90;;;;;;4941337;28;20431;-65
2023/08/22 09:19:56;;;;;;;7.47;2.70;;;21.60;99.90;;;;;;4962813;28;20218;-65
2023/08/22 09:22:30;;;;;;;5.85;2.67;;;21.60;99.90;;;;;;4958792;28;20222;-65
2023/08/22 09:24:56;;;;;;;7.55;3.03;;;21.70;99.90;;;;;;4948075;28;20218;-65
2023/08/22 09:27:25;;;;;;;3.95;2.60;;;21.70;99.90;;;;;;4950381;28;20561;-65
2023/08/22 09:29:53;;;;;;;5.35;2.33;;;21.70;99.90;;;;;;4947557;28;20210;-65
2023/08/22 09:32:22;;;;;;;4.82;2.90;;;21.80;99.90;;;;;;4927874;28;20520;-65
2023/08/22 09:34:59;;;;;;;6.57;2.78;;;21.70;99.90;;;;;;4960678;28;20297;-65
2023/08/22 09:37:34;;;;;;;4.35;2.60;;;21.70;99.90;;;;;;4963317;28;21022;-65
2023/08/22 09:40:03;;;;;;;6.38;2.78;;;21.70;99.90;;;;;;4958091;28;20225;-65
2023/08/22 09:42:31;;;;;;;5.10;2.50;;;21.60;99.90;;;;;;4975399;28;20235;-65
2023/08/22 09:44:58;;;;;;;5.70;2.45;;;21.30;99.90;;;;;;4973037;28;20202;-65
2023/08/22 09:47:28;;;;;;;4.35;2.50;;;21.60;99.90;;;;;;4925057;28;20222;-65
2023/08/22 09:49:59;;;;;;;4.05;2.33;;;21.60;99.90;;;;;;4978385;28;20199;-65
2023/08/22 09:52:26;;;;;;;5.50;2.83;;;21.50;99.90;;;;;;4958161;28;20216;-65
2023/08/22 09:54:55;;;;;;;6.80;2.60;;;21.80;99.90;;;;;;4980503;28;20222;-65
2023/08/22 09:57:24;;;;;;;4.82;2.40;;;21.80;99.90;;;;;;4980882;28;21025;-65
2023/08/22 09:59:51;;;;;;;3.55;2.55;;;21.90;99.90;;;;;;4967848;28;20648;-65
2023/08/22 10:02:19;;;;;;;4.35;2.65;;;21.90;99.90;;;;;;4933975;28;27204;-65
2023/08/22 10:04:47;;;;;;;7.40;3.03;;;22.10;99.90;;;;;;4948702;28;20357;-65
2023/08/22 10:07:14;;;;;;;5.68;2.83;;;22.20;99.90;;;;;;4958504;28;20345;-65
2023/08/22 10:09:42;;;;;;;8.13;3.20;;;22.20;99.90;;;;;;4949293;28;20210;-65
2023/08/22 10:12:14;;;;;;;8.80;2.78;;;22.10;99.90;;;;;;4964422;28;20234;-65
2023/08/22 10:14:45;;;;;;;5.03;2.65;;;22.10;99.90;;;;;;4969189;28;20227;-65
2023/08/22 10:17:13;;;;;;;2.45;2.15;;;22.10;99.90;;;;;;4985524;28;20289;-65
2023/08/22 10:19:42;;;;;;;6.60;3.15;;;22.20;99.90;;;;;;4941040;28;20228;-65
2023/08/22 10:22:11;;;;;;;3.78;2.55;;;22.20;99.90;;;;;;4957704;28;20866;-65
2023/08/22 10:24:38;;;;;;;5.05;2.60;;;22.10;99.90;;;;;;4966727;28;20234;-65
2023/08/22 10:27:06;;;;;;;6.57;2.95;;;22.20;99.90;;;;;;4976768;28;20427;-65
2023/08/22 10:29:36;;;;;;;6.18;2.72;;;22.30;99.90;;;;;;4975347;28;20199;-65
2023/08/22 10:32:21;;;;;;;5.05;2.20;;;22.20;99.90;;;;;;4983515;28;20294;-64
2023/08/22 10:35:28;;;;;;;3.50;2.10;;;22.20;99.90;;;;;;4933261;28;20207;-65
2023/08/22 10:37:56;;;;;;;6.18;2.78;;;22.20;99.90;;;;;;4980276;28;20312;-65
2023/08/22 10:40:29;;;;;;;8.05;2.75;;;22.20;99.90;;;;;;4971594;28;20207;-65
2023/08/22 10:43:11;;;;;;;3.75;2.10;;;22.10;99.90;;;;;;4964929;28;20234;-65
2023/08/22 10:45:47;;;;;;;5.93;2.30;;;22.10;99.90;;;;;;4959298;28;20281;-65
2023/08/22 10:48:16;;;;;;;4.20;2.13;;;22.10;99.90;;;;;;4965184;28;20229;-65
2023/08/22 10:50:46;;;;;;;3.65;2.25;;;22.20;99.90;;;;;;4929431;28;20237;-65
2023/08/22 10:53:20;;;;;;;4.97;2.00;;;22.30;99.90;;;;;;4977089;28;20203;-64
2023/08/22 10:55:48;;;;;;;3.72;1.73;;;22.40;99.90;;;;;;4964935;28;20665;-65
2023/08/22 10:58:37;;;;;;;4.68;1.90;;;22.40;99.90;;;;;;4983823;28;20342;-65
2023/08/22 11:01:11;;;;;;;5.30;1.90;;;22.50;99.90;;;;;;4976453;28;20203;-65
2023/08/22 11:03:38;;;;;;;14.88;1.98;;;22.60;99.90;;;;;;4981088;28;20305;-65
2023/08/22 11:06:13;;;;;;;2.30;2.10;;;22.60;99.90;;;;;;4937134;28;20231;-65
2023/08/22 11:08:41;;;;;;;4.20;1.83;;;23.20;99.90;;;;;;4979850;28;20207;-65
2023/08/22 11:11:09;;;;;;;4.40;1.63;;;22.50;99.90;;;;;;4976122;28;20217;-65
2023/08/22 11:13:38;;;;;;;5.70;1.70;;;22.50;99.90;;;;;;4981209;28;20195;-65
2023/08/22 11:16:09;;;;;;;5.68;1.73;;;22.50;99.90;;;;;;4972951;28;20372;-65
2023/08/22 11:18:36;;;;;;;2.15;1.67;;;22.60;99.90;;;;;;4983924;28;20199;-65
2023/08/22 11:21:03;;;;;;;3.65;1.48;;;22.50;99.90;;;;;;4942099;28;20230;-65
2023/08/22 11:23:32;;;;;;;3.58;1.75;;;22.60;99.90;;;;;;4938910;28;20230;-65
2023/08/22 11:26:00;;;;;;;3.10;1.85;;;22.50;99.90;;;;;;4955430;28;20203;-64
2023/08/22 11:28:31;;;;;;;4.90;1.70;;;22.60;99.90;;;;;;4934359;28;20222;-65
2023/08/22 11:30:58;;;;;;;2.15;1.70;;;22.60;99.90;;;;;;4965379;28;20743;-65
2023/08/22 11:33:35;;;;;;;3.83;1.70;;;22.60;99.90;;;;;;4956415;28;20299;-65
2023/08/22 11:36:03;;;;;;;2.28;1.33;;;22.60;99.90;;;;;;4977557;28;20275;-65
2023/08/22 11:38:33;;;;;;;3.67;1.60;;;22.60;99.90;;;;;;4943689;28;21115;-65
2023/08/22 11:41:00;;;;;;;2.15;1.20;;;21.30;99.90;;;;;;4958630;28;20241;-65
2023/08/22 11:43:27;;;;;;;3.22;1.50;;;22.80;99.90;;;;;;4941548;28;20238;-65
2023/08/22 11:45:54;;;;;;;6.22;1.67;;;22.80;99.90;;;;;;4984530;28;20623;-65
2023/08/22 11:48:21;;;;;;;4.65;1.25;;;22.80;99.90;;;;;;4978192;28;20226;-65
2023/08/22 11:50:51;;;;;;;1.77;1.10;;;22.80;99.90;;;;;;4954648;28;20223;-65
2023/08/22 11:53:18;;;;;;;2.17;1.08;;;22.80;99.90;;;;;;4941323;28;20825;-65
2023/08/22 11:55:47;;;;;;;2.15;1.35;;;22.80;99.90;;;;;;4979452;28;20855;-65
2023/08/22 11:58:16;;;;;;;2.20;2.00;;;22.80;99.90;;;;;;4970857;28;20222;-65
2023/08/22 12:00:43;;;;;;;2.17;1.02;;;22.80;99.90;;;;;;4982779;28;20698;-66
2023/08/22 12:03:10;;;;;;;5.55;1.02;;;22.80;99.90;;;;;;4964438;28;20230;-65
2023/08/22 12:05:39;;;;;;;1.58;1.10;;;22.70;99.90;;;;;;4983381;28;20233;-65
2023/08/22 12:08:20;;;;;;;1.60;1.08;;;22.70;99.90;;;;;;4923540;28;20214;-64
2023/08/22 12:10:49;;;;;;;1.20;1.10;;;22.90;99.90;;;;;;4983854;28;20551;-64
2023/08/22 12:13:17;;;;;;;2.30;1.02;;;22.90;99.90;;;;;;4974480;28;20237;-64
2023/08/22 12:15:45;;;;;;;1.23;0.93;;;22.90;99.90;;;;;;4949685;28;20230;-64
2023/08/22 12:18:12;;;;;;;2.92;1.20;;;23.00;99.90;;;;;;4975652;28;20198;-64
2023/08/22 12:20:40;;;;;;;1.90;1.17;;;23.10;99.90;;;;;;4986048;28;20618;-64
2023/08/22 12:23:08;;;;;;;2.47;1.00;;;23.10;99.90;;;;;;4947979;28;20237;-64
2023/08/22 12:25:38;;;;;;;0.70;0.70;;;23.10;99.90;;;;;;4985561;28;20309;-63
2023/08/22 12:28:06;;;;;;;1.30;0.88;;;23.10;99.90;;;;;;4971312;28;20222;-64
2023/08/22 12:30:35;;;;;;;0.80;0.80;;;23.00;99.90;;;;;;4973346;28;20763;-64
2023/08/22 12:33:03;;;;;;;1.50;0.90;;;22.90;99.90;;;;;;4981509;28;20326;-64
2023/08/22 12:35:30;;;;;;;1.38;0.90;;;22.90;99.90;;;;;;4976048;28;20215;-63
2023/08/22 12:37:57;;;;;;;3.10;1.10;;;23.00;99.90;;;;;;4959962;28;20198;-64
2023/08/22 12:40:24;;;;;;;1.92;0.88;;;23.10;99.90;;;;;;4956423;28;20230;-64
2023/08/22 12:42:52;;;;;;;1.90;1.02;;;23.10;99.90;;;;;;4979578;28;20320;-65
2023/08/22 12:45:19;;;;;;;2.47;1.00;;;23.10;99.90;;;;;;4962674;28;20206;-65
2023/08/22 12:47:48;;;;;;;1.02;0.80;;;23.20;99.90;;;;;;4986612;28;21506;-65
2023/08/22 12:50:15;;;;;;;1.02;0.80;;;23.20;99.90;;;;;;4973126;28;21814;-65